Terminal Aerodrome Forecast
Issued by NWS Mt. Holly, NJ

Home | Current Version | Previous Version | Text Only | Print | Product List | Glossary On
Versions: 1 2 3 4 5 6 7 8 9 10 11 12 13 14 15 16 17 18
000
FTUS41 KPHI 191724
TAFACY
TAF
KACY 191724Z 1918/2018 08015G25KT P6SM OVC250
     FM200300 09015G25KT P6SM OVC040
     FM200600 11018G28KT 2SM -RA BR OVC008 WS020/13055KT
     FM201700 14014KT 6SM -SHRA BR OVC010=

USA.gov is the U.S. government's official web portal to all federal, state and local government web resources and services.